Terminal Aerodrome Forecast
Issued by NWS

Home | Current Version | Previous Version | Text Only | Print | Product List | Glossary On
Versions: 1 2 3 4 5 6 7 8 9 10 11 12
000
FTUS42 TJSJ 112320
TAFJPS
TAF
TJPS 112320Z 1200/1224 06005KT P6SM SCT030
     FM120400 VRB04KT P6SM FEW150
     FM121120 05003KT P6SM FEW250
     FM121600 09009KT P6SM FEW150
      AMD NOT SKED TIL 120300=

USA.gov is the U.S. government's official web portal to all federal, state and local government web resources and services.